sensor_id;sensor_type;location;lat;lon;timestamp;pressure;altitude;pressure_sealevel;temperature;humidity
59654;BME280;66556;52.008;5.432;2023-02-23T00:01:17;101334.0;;;14.41;77.86
59654;BME280;66556;52.008;5.432;2023-02-23T00:02:55;101335.0;;;14.64;77.64
59654;BME280;66556;52.008;5.432;2023-02-23T00:04:32;101334.0;;;14.69;77.25
59654;BME280;66556;52.008;5.432;2023-02-23T00:07:46;101333.0;;;14.63;77.58
59654;BME280;66556;52.008;5.432;2023-02-23T00:09:22;101333.0;;;14.51;78.14
59654;BME280;66556;52.008;5.432;2023-02-23T00:10:59;101327.0;;;14.6;77.59
59654;BME280;66556;52.008;5.432;2023-02-23T00:14:11;101323.0;;;14.83;77.75
59654;BME280;66556;52.008;5.432;2023-02-23T00:15:47;101327.0;;;14.71;77.08
59654;BME280;66556;52.008;5.432;2023-02-23T00:17:23;101330.0;;;14.67;77.19
59654;BME280;66556;52.008;5.432;2023-02-23T00:19:01;101326.0;;;14.8;77.81
59654;BME280;66556;52.008;5.432;2023-02-23T00:22:19;101325.0;;;14.89;76.03
59654;BME280;66556;52.008;5.432;2023-02-23T00:23:57;101327.0;;;14.58;77.48
59654;BME280;66556;52.008;5.432;2023-02-23T00:25:37;101328.0;;;14.51;78.17
59654;BME280;66556;52.008;5.432;2023-02-23T00:28:57;101324.0;;;14.49;78.33
59654;BME280;66556;52.008;5.432;2023-02-23T00:30:33;101323.0;;;14.61;77.99
59654;BME280;66556;52.008;5.432;2023-02-23T00:32:11;101321.0;;;14.59;78.05
59654;BME280;66556;52.008;5.432;2023-02-23T00:33:50;101318.0;;;14.83;76.59
59654;BME280;66556;52.008;5.432;2023-02-23T00:37:04;101316.0;;;14.59;77.58
59654;BME280;66556;52.008;5.432;2023-02-23T00:38:40;101317.0;;;14.58;77.75
59654;BME280;66556;52.008;5.432;2023-02-23T00:40:19;101320.0;;;14.65;77.83
59654;BME280;66556;52.008;5.432;2023-02-23T00:43:34;101321.0;;;14.51;78.2
59654;BME280;66556;52.008;5.432;2023-02-23T00:45:12;101320.0;;;14.64;77.69
59654;BME280;66556;52.008;5.432;2023-02-23T00:46:50;101316.0;;;14.59;77.84
59654;BME280;66556;52.008;5.432;2023-02-23T00:48:28;101318.0;;;14.59;77.69
59654;BME280;66556;52.008;5.432;2023-02-23T00:51:42;101318.0;;;14.61;77.5
59654;BME280;66556;52.008;5.432;2023-02-23T00:53:18;101317.0;;;14.57;77.87
59654;BME280;66556;52.008;5.432;2023-02-23T00:54:55;101315.0;;;14.43;78.34
59654;BME280;66556;52.008;5.432;2023-02-23T00:58:08;101316.0;;;14.62;78.66
59654;BME280;66556;52.008;5.432;2023-02-23T00:59:45;101316.0;;;14.76;77.05
59654;BME280;66556;52.008;5.432;2023-02-23T01:01:22;101314.0;;;14.66;77.22
59654;BME280;66556;52.008;5.432;2023-02-23T01:02:58;101317.0;;;14.66;77.44
59654;BME280;66556;52.008;5.432;2023-02-23T01:06:12;101311.0;;;14.69;77.31
59654;BME280;66556;52.008;5.432;2023-02-23T01:07:48;101311.0;;;14.77;76.95
59654;BME280;66556;52.008;5.432;2023-02-23T01:09:27;101316.0;;;14.83;76.55
59654;BME280;66556;52.008;5.432;2023-02-23T01:12:43;101316.0;;;14.81;76.52
59654;BME280;66556;52.008;5.432;2023-02-23T01:14:21;101319.0;;;14.79;77.41
59654;BME280;66556;52.008;5.432;2023-02-23T01:15:58;101317.0;;;14.68;77.33
59654;BME280;66556;52.008;5.432;2023-02-23T01:19:10;101323.0;;;14.65;77.58
59654;BME280;66556;52.008;5.432;2023-02-23T01:20:50;101321.0;;;14.76;76.98
59654;BME280;66556;52.008;5.432;2023-02-23T01:22:25;101325.0;;;14.7;77.74
59654;BME280;66556;52.008;5.432;2023-02-23T01:24:02;101322.0;;;14.8;76.73
59654;BME280;66556;52.008;5.432;2023-02-23T01:27:19;101328.0;;;14.84;76.73
59654;BME280;66556;52.008;5.432;2023-02-23T01:28:57;101327.0;;;14.81;76.55
59654;BME280;66556;52.008;5.432;2023-02-23T01:30:34;101326.0;;;14.7;77.31
59654;BME280;66556;52.008;5.432;2023-02-23T01:33:51;101328.0;;;14.79;77.16
59654;BME280;66556;52.008;5.432;2023-02-23T01:35:28;101332.0;;;14.74;77.28
59654;BME280;66556;52.008;5.432;2023-02-23T01:37:04;101332.0;;;14.79;77.09
59654;BME280;66556;52.008;5.432;2023-02-23T01:38:41;101333.0;;;14.67;77.3
59654;BME280;66556;52.008;5.432;2023-02-23T01:42:08;101333.0;;;14.76;76.83
59654;BME280;66556;52.008;5.432;2023-02-23T01:43:56;101331.0;;;14.61;77.58
59654;BME280;66556;52.008;5.432;2023-02-23T01:45:34;101332.0;;;14.55;77.99
59654;BME280;66556;52.008;5.432;2023-02-23T01:47:12;101326.0;;;14.63;77.8
59654;BME280;66556;52.008;5.432;2023-02-23T01:50:37;101328.0;;;14.59;77.87
59654;BME280;66556;52.008;5.432;2023-02-23T01:52:15;101327.0;;;14.61;77.99
59654;BME280;66556;52.008;5.432;2023-02-23T01:53:57;101327.0;;;14.54;78.05
59654;BME280;66556;52.008;5.432;2023-02-23T01:55:35;101330.0;;;14.54;78.23
59654;BME280;66556;52.008;5.432;2023-02-23T01:58:53;101327.0;;;14.62;77.59
59654;BME280;66556;52.008;5.432;2023-02-23T02:00:35;101330.0;;;14.59;77.73
59654;BME280;66556;52.008;5.432;2023-02-23T02:02:13;101328.0;;;14.51;78.11
59654;BME280;66556;52.008;5.432;2023-02-23T02:03:55;101328.0;;;14.65;77.72
59654;BME280;66556;52.008;5.432;2023-02-23T02:07:11;101332.0;;;14.67;77.55
59654;BME280;66556;52.008;5.432;2023-02-23T02:08:50;101328.0;;;14.6;77.44
59654;BME280;66556;52.008;5.432;2023-02-23T02:10:45;101330.0;;;14.61;77.52
59654;BME280;66556;52.008;5.432;2023-02-23T02:12:22;101326.0;;;14.58;77.52
59654;BME280;66556;52.008;5.432;2023-02-23T02:15:48;101331.0;;;14.68;77.95
59654;BME280;66556;52.008;5.432;2023-02-23T02:17:43;101336.0;;;14.5;77.95
59654;BME280;66556;52.008;5.432;2023-02-23T02:20:22;101332.0;;;14.53;77.97
59654;BME280;66556;52.008;5.432;2023-02-23T02:25:41;101324.0;;;14.89;76.95
59654;BME280;66556;52.008;5.432;2023-02-23T02:27:39;101326.0;;;14.67;77.0
59654;BME280;66556;52.008;5.432;2023-02-23T02:29:55;101327.0;;;14.62;77.44
59654;BME280;66556;52.008;5.432;2023-02-23T02:32:42;101327.0;;;14.55;77.62
59654;BME280;66556;52.008;5.432;2023-02-23T02:36:44;101333.0;;;14.54;77.77
59654;BME280;66556;52.008;5.432;2023-02-23T02:39:42;101335.0;;;14.49;78.16
59654;BME280;66556;52.008;5.432;2023-02-23T02:41:30;101337.0;;;14.51;78.08
59654;BME280;66556;52.008;5.432;2023-02-23T02:45:00;101334.0;;;14.52;77.98
59654;BME280;66556;52.008;5.432;2023-02-23T02:46:45;101331.0;;;14.52;78.08
59654;BME280;66556;52.008;5.432;2023-02-23T02:48:31;101331.0;;;14.27;79.16
59654;BME280;66556;52.008;5.432;2023-02-23T02:50:16;101328.0;;;14.11;80.2
59654;BME280;66556;52.008;5.432;2023-02-23T02:52:00;101328.0;;;14.21;80.08
59654;BME280;66556;52.008;5.432;2023-02-23T02:55:28;101328.0;;;14.22;79.89
59654;BME280;66556;52.008;5.432;2023-02-23T02:57:08;101327.0;;;14.31;79.36
59654;BME280;66556;52.008;5.432;2023-02-23T02:58:50;101324.0;;;14.51;79.0
59654;BME280;66556;52.008;5.432;2023-02-23T04:17:41;101369.0;;;14.52;79.02
59654;BME280;66556;52.008;5.432;2023-02-23T04:20:56;101365.0;;;14.58;78.53
59654;BME280;66556;52.008;5.432;2023-02-23T04:22:34;101366.0;;;14.43;78.89
59654;BME280;66556;52.008;5.432;2023-02-23T04:24:11;101367.0;;;14.3;79.52
59654;BME280;66556;52.008;5.432;2023-02-23T04:27:24;101371.0;;;14.24;80.02
59654;BME280;66556;52.008;5.432;2023-02-23T04:29:00;101368.0;;;14.27;79.89
59654;BME280;66556;52.008;5.432;2023-02-23T04:30:36;101373.0;;;14.32;79.66
59654;BME280;66556;52.008;5.432;2023-02-23T04:32:14;101371.0;;;14.33;79.42
59654;BME280;66556;52.008;5.432;2023-02-23T04:35:29;101369.0;;;14.42;79.55
59654;BME280;66556;52.008;5.432;2023-02-23T04:37:06;101369.0;;;14.34;79.37
59654;BME280;66556;52.008;5.432;2023-02-23T04:38:43;101370.0;;;14.74;78.66
59654;BME280;66556;52.008;5.432;2023-02-23T04:41:55;101368.0;;;14.89;77.61
59654;BME280;66556;52.008;5.432;2023-02-23T04:43:31;101364.0;;;14.76;77.72
59654;BME280;66556;52.008;5.432;2023-02-23T04:45:08;101371.0;;;15.22;76.44
59654;BME280;66556;52.008;5.432;2023-02-23T04:48:24;101370.0;;;15.06;75.74
59654;BME280;66556;52.008;5.432;2023-02-23T04:50:00;101372.0;;;14.84;76.45
59654;BME280;66556;52.008;5.432;2023-02-23T04:51:36;101376.0;;;14.37;78.03
59654;BME280;66556;52.008;5.432;2023-02-23T04:53:13;101375.0;;;14.48;78.13
59654;BME280;66556;52.008;5.432;2023-02-23T04:56:25;101373.0;;;14.32;78.64
59654;BME280;66556;52.008;5.432;2023-02-23T04:58:02;101375.0;;;14.04;80.28
59654;BME280;66556;52.008;5.432;2023-02-23T04:59:38;101380.0;;;14.04;80.73
59654;BME280;66556;52.008;5.432;2023-02-23T05:02:51;101378.0;;;14.33;80.55
59654;BME280;66556;52.008;5.432;2023-02-23T05:04:27;101382.0;;;14.39;79.23
59654;BME280;66556;52.008;5.432;2023-02-23T05:06:04;101381.0;;;14.54;78.3
59654;BME280;66556;52.008;5.432;2023-02-23T05:07:41;101381.0;;;14.42;79.11
59654;BME280;66556;52.008;5.432;2023-02-23T05:10:53;101387.0;;;14.56;78.44
59654;BME280;66556;52.008;5.432;2023-02-23T05:12:30;101389.0;;;14.47;78.69
59654;BME280;66556;52.008;5.432;2023-02-23T05:14:06;101389.0;;;14.4;79.33
59654;BME280;66556;52.008;5.432;2023-02-23T05:17:20;101389.0;;;14.44;79.58
59654;BME280;66556;52.008;5.432;2023-02-23T05:18:56;101387.0;;;14.3;79.64
59654;BME280;66556;52.008;5.432;2023-02-23T05:20:33;101389.0;;;14.38;79.52
59654;BME280;66556;52.008;5.432;2023-02-23T05:23:47;101397.0;;;14.39;79.74
59654;BME280;66556;52.008;5.432;2023-02-23T05:25:24;101400.0;;;14.51;79.27
59654;BME280;66556;52.008;5.432;2023-02-23T05:28:38;101399.0;;;14.46;79.3
59654;BME280;66556;52.008;5.432;2023-02-23T05:31:52;101392.0;;;14.35;79.84
59654;BME280;66556;52.008;5.432;2023-02-23T05:33:28;101398.0;;;14.56;79.44
59654;BME280;66556;52.008;5.432;2023-02-23T05:35:05;101400.0;;;14.44;79.42
59654;BME280;66556;52.008;5.432;2023-02-23T05:38:19;101403.0;;;14.51;79.24
59654;BME280;66556;52.008;5.432;2023-02-23T05:39:56;101400.0;;;14.3;79.81
59654;BME280;66556;52.008;5.432;2023-02-23T05:41:33;101403.0;;;14.22;80.34
59654;BME280;66556;52.008;5.432;2023-02-23T05:44:45;101405.0;;;14.37;80.25
59654;BME280;66556;52.008;5.432;2023-02-23T05:46:23;101402.0;;;14.32;80.22
59654;BME280;66556;52.008;5.432;2023-02-23T05:48:02;101402.0;;;14.29;80.7
59654;BME280;66556;52.008;5.432;2023-02-23T05:49:38;101402.0;;;14.44;79.58
59654;BME280;66556;52.008;5.432;2023-02-23T05:52:53;101403.0;;;14.35;79.84
59654;BME280;66556;52.008;5.432;2023-02-23T05:56:07;101401.0;;;14.43;79.47
59654;BME280;66556;52.008;5.432;2023-02-23T05:59:22;101400.0;;;14.34;79.75
59654;BME280;66556;52.008;5.432;2023-02-23T06:00:58;101405.0;;;14.36;79.81
59654;BME280;66556;52.008;5.432;2023-02-23T06:02:35;101408.0;;;14.37;79.64
59654;BME280;66556;52.008;5.432;2023-02-23T06:04:12;101405.0;;;14.33;79.58
59654;BME280;66556;52.008;5.432;2023-02-23T06:07:26;101403.0;;;14.34;79.47
59654;BME280;66556;52.008;5.432;2023-02-23T06:09:03;101413.0;;;14.32;79.91
59654;BME280;66556;52.008;5.432;2023-02-23T06:10:39;101412.0;;;14.24;80.08
59654;BME280;66556;52.008;5.432;2023-02-23T06:13:51;101414.0;;;14.26;79.88
59654;BME280;66556;52.008;5.432;2023-02-23T06:15:27;101419.0;;;14.32;79.64
59654;BME280;66556;52.008;5.432;2023-02-23T06:17:04;101418.0;;;14.26;79.87
59654;BME280;66556;52.008;5.432;2023-02-23T06:20:18;101422.0;;;14.2;80.3
59654;BME280;66556;52.008;5.432;2023-02-23T06:21:55;101422.0;;;14.37;79.58
59654;BME280;66556;52.008;5.432;2023-02-23T06:23:31;101424.0;;;14.28;79.69
59654;BME280;66556;52.008;5.432;2023-02-23T06:25:11;101430.0;;;14.28;79.69
59654;BME280;66556;52.008;5.432;2023-02-23T06:28:26;101433.0;;;14.37;79.38
59654;BME280;66556;52.008;5.432;2023-02-23T06:30:03;101431.0;;;14.37;79.33
59654;BME280;66556;52.008;5.432;2023-02-23T06:31:40;101437.0;;;14.34;79.19
59654;BME280;66556;52.008;5.432;2023-02-23T06:34:53;101433.0;;;14.35;79.39
59654;BME280;66556;52.008;5.432;2023-02-23T06:36:29;101435.0;;;14.31;79.5
59654;BME280;66556;52.008;5.432;2023-02-23T06:38:05;101438.0;;;14.46;79.27
59654;BME280;66556;52.008;5.432;2023-02-23T06:41:17;101436.0;;;14.57;78.45
59654;BME280;66556;52.008;5.432;2023-02-23T06:42:53;101439.0;;;14.81;77.38
59654;BME280;66556;52.008;5.432;2023-02-23T06:44:30;101442.0;;;14.65;77.55
59654;BME280;66556;52.008;5.432;2023-02-23T06:46:06;101446.0;;;14.45;78.41
59654;BME280;66556;52.008;5.432;2023-02-23T06:49:20;101448.0;;;14.54;77.97
59654;BME280;66556;52.008;5.432;2023-02-23T06:50:57;101451.0;;;14.49;78.0
59654;BME280;66556;52.008;5.432;2023-02-23T06:52:33;101456.0;;;14.44;78.11
59654;BME280;66556;52.008;5.432;2023-02-23T06:55:46;101448.0;;;14.4;78.39
59654;BME280;66556;52.008;5.432;2023-02-23T06:57:23;101455.0;;;14.5;78.55
59654;BME280;66556;52.008;5.432;2023-02-23T06:58:59;101456.0;;;14.51;78.05
59654;BME280;66556;52.008;5.432;2023-02-23T07:02:12;101457.0;;;14.45;78.39
59654;BME280;66556;52.008;5.432;2023-02-23T07:03:48;101459.0;;;14.44;78.09
59654;BME280;66556;52.008;5.432;2023-02-23T07:05:25;101459.0;;;14.66;77.77
59654;BME280;66556;52.008;5.432;2023-02-23T07:07:01;101463.0;;;14.73;76.98
59654;BME280;66556;52.008;5.432;2023-02-23T07:10:14;101462.0;;;14.63;77.06
59654;BME280;66556;52.008;5.432;2023-02-23T07:11:50;101468.0;;;14.34;77.97
59654;BME280;66556;52.008;5.432;2023-02-23T07:13:27;101469.0;;;14.59;78.19
59654;BME280;66556;52.008;5.432;2023-02-23T07:16:40;101465.0;;;14.74;76.97
59654;BME280;66556;52.008;5.432;2023-02-23T07:18:16;101471.0;;;14.48;77.91
59654;BME280;66556;52.008;5.432;2023-02-23T07:19:53;101470.0;;;14.49;77.91
59654;BME280;66556;52.008;5.432;2023-02-23T07:23:09;101474.0;;;14.48;78.33
59654;BME280;66556;52.008;5.432;2023-02-23T07:24:45;101474.0;;;14.41;78.63
59654;BME280;66556;52.008;5.432;2023-02-23T07:26:22;101482.0;;;14.45;78.27
59654;BME280;66556;52.008;5.432;2023-02-23T07:27:59;101487.0;;;14.34;78.94
59654;BME280;66556;52.008;5.432;2023-02-23T07:31:13;101489.0;;;14.28;79.33
59654;BME280;66556;52.008;5.432;2023-02-23T07:32:50;101494.0;;;13.88;80.58
59654;BME280;66556;52.008;5.432;2023-02-23T07:34:27;101495.0;;;13.58;83.34
59654;BME280;66556;52.008;5.432;2023-02-23T07:37:41;101499.0;;;13.53;83.93
59654;BME280;66556;52.008;5.432;2023-02-23T07:39:17;101498.0;;;14.09;81.48
59654;BME280;66556;52.008;5.432;2023-02-23T07:40:53;101505.0;;;13.79;82.53
59654;BME280;66556;52.008;5.432;2023-02-23T07:42:30;101502.0;;;13.72;83.68
59654;BME280;66556;52.008;5.432;2023-02-23T07:45:42;101506.0;;;13.62;84.25
59654;BME280;66556;52.008;5.432;2023-02-23T07:47:19;101510.0;;;13.89;83.39
59654;BME280;66556;52.008;5.432;2023-02-23T07:48:55;101514.0;;;14.03;82.67
59654;BME280;66556;52.008;5.432;2023-02-23T07:52:09;101520.0;;;14.17;82.11
59654;BME280;66556;52.008;5.432;2023-02-23T07:53:45;101523.0;;;14.19;81.72
59654;BME280;66556;52.008;5.432;2023-02-23T07:55:21;101525.0;;;14.21;81.63
59654;BME280;66556;52.008;5.432;2023-02-23T07:58:35;101524.0;;;14.2;81.73
59654;BME280;66556;52.008;5.432;2023-02-23T08:00:13;101525.0;;;14.32;81.17
59654;BME280;66556;52.008;5.432;2023-02-23T08:01:50;101526.0;;;14.37;80.59
59654;BME280;66556;52.008;5.432;2023-02-23T08:03:28;101531.0;;;14.34;81.05
59654;BME280;66556;52.008;5.432;2023-02-23T08:06:41;101530.0;;;14.36;81.3
59654;BME280;66556;52.008;5.432;2023-02-23T08:08:18;101532.0;;;14.44;80.91
59654;BME280;66556;52.008;5.432;2023-02-23T08:09:54;101532.0;;;14.54;80.69
59654;BME280;66556;52.008;5.432;2023-02-23T08:13:07;101536.0;;;14.57;80.59
59654;BME280;66556;52.008;5.432;2023-02-23T08:14:43;101537.0;;;14.61;80.58
59654;BME280;66556;52.008;5.432;2023-02-23T08:16:19;101539.0;;;14.62;80.19
59654;BME280;66556;52.008;5.432;2023-02-23T08:19:33;101543.0;;;14.61;80.2
59654;BME280;66556;52.008;5.432;2023-02-23T08:21:10;101542.0;;;14.52;80.77
59654;BME280;66556;52.008;5.432;2023-02-23T08:22:46;101545.0;;;14.53;81.14
59654;BME280;66556;52.008;5.432;2023-02-23T08:24:22;101547.0;;;14.65;80.91
59654;BME280;66556;52.008;5.432;2023-02-23T08:27:38;101549.0;;;14.77;80.41
59654;BME280;66556;52.008;5.432;2023-02-23T08:29:15;101552.0;;;14.77;79.74
59654;BME280;66556;52.008;5.432;2023-02-23T08:30:52;101552.0;;;14.79;79.88
59654;BME280;66556;52.008;5.432;2023-02-23T08:34:09;101553.0;;;14.76;80.3
59654;BME280;66556;52.008;5.432;2023-02-23T08:35:46;101555.0;;;14.8;79.77
59654;BME280;66556;52.008;5.432;2023-02-23T08:37:22;101559.0;;;14.79;80.22
59654;BME280;66556;52.008;5.432;2023-02-23T08:40:36;101561.0;;;14.98;79.33
59654;BME280;66556;52.008;5.432;2023-02-23T08:42:13;101560.0;;;14.88;80.23
59654;BME280;66556;52.008;5.432;2023-02-23T08:43:49;101563.0;;;15.03;79.94
59654;BME280;66556;52.008;5.432;2023-02-23T08:45:28;101565.0;;;14.87;80.05
59654;BME280;66556;52.008;5.432;2023-02-23T08:48:41;101566.0;;;15.03;79.16
59654;BME280;66556;52.008;5.432;2023-02-23T08:50:17;101567.0;;;15.0;79.72
59654;BME280;66556;52.008;5.432;2023-02-23T08:51:53;101573.0;;;15.11;79.0
59654;BME280;66556;52.008;5.432;2023-02-23T08:55:07;101576.0;;;15.06;78.77
59654;BME280;66556;52.008;5.432;2023-02-23T08:56:43;101574.0;;;15.04;79.48
59654;BME280;66556;52.008;5.432;2023-02-23T08:58:20;101580.0;;;15.08;79.39
59654;BME280;66556;52.008;5.432;2023-02-23T08:59:57;101580.0;;;14.94;79.67
59654;BME280;66556;52.008;5.432;2023-02-23T09:03:09;101583.0;;;15.03;79.27
59654;BME280;66556;52.008;5.432;2023-02-23T09:04:45;101581.0;;;15.05;78.95
59654;BME280;66556;52.008;5.432;2023-02-23T09:06:23;101585.0;;;14.93;79.74
59654;BME280;66556;52.008;5.432;2023-02-23T09:09:37;101586.0;;;14.76;80.33
59654;BME280;66556;52.008;5.432;2023-02-23T09:11:13;101585.0;;;14.88;80.25
59654;BME280;66556;52.008;5.432;2023-02-23T09:12:50;101584.0;;;14.83;80.19
59654;BME280;66556;52.008;5.432;2023-02-23T09:16:04;101585.0;;;14.9;80.23
59654;BME280;66556;52.008;5.432;2023-02-23T09:17:43;101588.0;;;14.9;79.84
59654;BME280;66556;52.008;5.432;2023-02-23T09:19:20;101594.0;;;15.09;79.42
59654;BME280;66556;52.008;5.432;2023-02-23T09:20:57;101599.0;;;15.11;78.8
59654;BME280;66556;52.008;5.432;2023-02-23T09:24:11;101595.0;;;14.96;78.78
59654;BME280;66556;52.008;5.432;2023-02-23T09:25:47;101598.0;;;14.91;79.33
59654;BME280;66556;52.008;5.432;2023-02-23T09:27:23;101598.0;;;14.82;79.74
59654;BME280;66556;52.008;5.432;2023-02-23T09:30:38;101600.0;;;15.01;79.67
59654;BME280;66556;52.008;5.432;2023-02-23T09:32:15;101599.0;;;15.11;79.27
59654;BME280;66556;52.008;5.432;2023-02-23T09:33:52;101599.0;;;15.21;79.27
59654;BME280;66556;52.008;5.432;2023-02-23T09:35:29;101601.0;;;15.22;78.64
59654;BME280;66556;52.008;5.432;2023-02-23T09:38:42;101608.0;;;15.21;78.77
59654;BME280;66556;52.008;5.432;2023-02-23T09:40:21;101607.0;;;15.31;78.87
59654;BME280;66556;52.008;5.432;2023-02-23T09:42:09;101610.0;;;15.49;78.72
59654;BME280;66556;52.008;5.432;2023-02-23T09:43:55;101610.0;;;15.33;78.48
59654;BME280;66556;52.008;5.432;2023-02-23T09:47:27;101614.0;;;15.41;78.13
59654;BME280;66556;52.008;5.432;2023-02-23T09:49:10;101613.0;;;15.33;78.27
59654;BME280;66556;52.008;5.432;2023-02-23T09:50:53;101615.0;;;15.47;77.97
59654;BME280;66556;52.008;5.432;2023-02-23T09:52:37;101614.0;;;15.28;78.47
59654;BME280;66556;52.008;5.432;2023-02-23T09:55:55;101619.0;;;15.34;78.72
59654;BME280;66556;52.008;5.432;2023-02-23T09:57:36;101618.0;;;15.49;77.94
59654;BME280;66556;52.008;5.432;2023-02-23T09:59:16;101611.0;;;15.56;78.11
59654;BME280;66556;52.008;5.432;2023-02-23T10:01:08;101613.0;;;15.62;77.88
59654;BME280;66556;52.008;5.432;2023-02-23T10:03:55;101614.0;;;15.53;78.19
59654;BME280;66556;52.008;5.432;2023-02-23T10:05:39;101617.0;;;15.62;77.49
59654;BME280;66556;52.008;5.432;2023-02-23T10:07:23;101617.0;;;15.8;76.77
59654;BME280;66556;52.008;5.432;2023-02-23T10:09:14;101618.0;;;15.72;76.8
59654;BME280;66556;52.008;5.432;2023-02-23T10:12:48;101622.0;;;15.79;76.86
59654;BME280;66556;52.008;5.432;2023-02-23T10:14:44;101619.0;;;15.9;76.05
59654;BME280;66556;52.008;5.432;2023-02-23T10:16:42;101619.0;;;15.87;76.78
59654;BME280;66556;52.008;5.432;2023-02-23T10:18:36;101614.0;;;15.98;76.12
59654;BME280;66556;52.008;5.432;2023-02-23T10:20:20;101619.0;;;15.85;76.06
59654;BME280;66556;52.008;5.432;2023-02-23T10:22:03;101617.0;;;15.69;76.2
59654;BME280;66556;52.008;5.432;2023-02-23T10:23:45;101619.0;;;15.68;77.0
59654;BME280;66556;52.008;5.432;2023-02-23T10:27:09;101626.0;;;15.76;76.12
59654;BME280;66556;52.008;5.432;2023-02-23T10:28:50;101628.0;;;15.82;75.86
59654;BME280;66556;52.008;5.432;2023-02-23T10:30:31;101633.0;;;15.92;75.69
59654;BME280;66556;52.008;5.432;2023-02-23T10:32:14;101631.0;;;15.99;75.61
59654;BME280;66556;52.008;5.432;2023-02-23T10:35:36;101632.0;;;15.96;75.45
59654;BME280;66556;52.008;5.432;2023-02-23T10:37:15;101633.0;;;16.02;75.45
59654;BME280;66556;52.008;5.432;2023-02-23T10:38:52;101637.0;;;16.31;74.42
59654;BME280;66556;52.008;5.432;2023-02-23T10:40:31;101639.0;;;16.11;74.24
59654;BME280;66556;52.008;5.432;2023-02-23T10:43:52;101642.0;;;16.03;74.83
59654;BME280;66556;52.008;5.432;2023-02-23T10:45:32;101640.0;;;16.18;74.44
59654;BME280;66556;52.008;5.432;2023-02-23T10:47:13;101638.0;;;16.18;74.75
59654;BME280;66556;52.008;5.432;2023-02-23T10:48:51;101641.0;;;16.11;74.53
59654;BME280;66556;52.008;5.432;2023-02-23T10:52:16;101640.0;;;16.05;74.25
59654;BME280;66556;52.008;5.432;2023-02-23T10:54:33;101639.0;;;16.11;74.2
59654;BME280;66556;52.008;5.432;2023-02-23T10:56:12;101643.0;;;15.93;74.53
59654;BME280;66556;52.008;5.432;2023-02-23T10:58:00;101641.0;;;16.03;74.3
59654;BME280;66556;52.008;5.432;2023-02-23T10:59:39;101642.0;;;15.79;74.48
59654;BME280;66556;52.008;5.432;2023-02-23T11:01:39;101650.0;;;15.82;74.13
59654;BME280;66556;52.008;5.432;2023-02-23T11:05:04;101646.0;;;15.94;73.8
59654;BME280;66556;52.008;5.432;2023-02-23T11:06:42;101647.0;;;15.83;74.37
59654;BME280;66556;52.008;5.432;2023-02-23T11:08:22;101649.0;;;15.7;74.87
59654;BME280;66556;52.008;5.432;2023-02-23T11:10:23;101646.0;;;15.78;75.03
59654;BME280;66556;52.008;5.432;2023-02-23T11:12:03;101646.0;;;16.04;74.48
59654;BME280;66556;52.008;5.432;2023-02-23T11:13:55;101647.0;;;16.06;74.02
59654;BME280;66556;52.008;5.432;2023-02-23T11:17:23;101645.0;;;15.99;74.3
59654;BME280;66556;52.008;5.432;2023-02-23T11:19:08;101645.0;;;16.03;75.7
59654;BME280;66556;52.008;5.432;2023-02-23T11:20:54;101640.0;;;16.15;74.06
59654;BME280;66556;52.008;5.432;2023-02-23T11:22:34;101634.0;;;16.04;74.59
59654;BME280;66556;52.008;5.432;2023-02-23T11:26:01;101637.0;;;15.96;73.88
59654;BME280;66556;52.008;5.432;2023-02-23T11:27:45;101638.0;;;16.32;73.64
59654;BME280;66556;52.008;5.432;2023-02-23T11:29:25;101642.0;;;16.25;72.52
59654;BME280;66556;52.008;5.432;2023-02-23T11:31:13;101638.0;;;16.18;72.66
59654;BME280;66556;52.008;5.432;2023-02-23T11:32:53;101640.0;;;16.12;73.58
59654;BME280;66556;52.008;5.432;2023-02-23T11:36:15;101644.0;;;16.12;73.38
59654;BME280;66556;52.008;5.432;2023-02-23T11:37:53;101647.0;;;16.34;73.03
59654;BME280;66556;52.008;5.432;2023-02-23T11:39:29;101645.0;;;16.05;72.36
59654;BME280;66556;52.008;5.432;2023-02-23T11:41:18;101652.0;;;16.22;72.05
59654;BME280;66556;52.008;5.432;2023-02-23T11:44:49;101651.0;;;16.11;72.36
59654;BME280;66556;52.008;5.432;2023-02-23T11:46:27;101650.0;;;16.34;72.19
59654;BME280;66556;52.008;5.432;2023-02-23T11:48:04;101655.0;;;16.34;72.06
59654;BME280;66556;52.008;5.432;2023-02-23T11:49:43;101653.0;;;16.36;71.41
59654;BME280;66556;52.008;5.432;2023-02-23T11:53:03;101655.0;;;16.36;71.78
59654;BME280;66556;52.008;5.432;2023-02-23T11:54:50;101649.0;;;16.38;71.27
59654;BME280;66556;52.008;5.432;2023-02-23T11:56:28;101647.0;;;16.32;71.13
59654;BME280;66556;52.008;5.432;2023-02-23T11:58:09;101639.0;;;16.4;70.95
59654;BME280;66556;52.008;5.432;2023-02-23T11:59:59;101638.0;;;16.48;70.08
59654;BME280;66556;52.008;5.432;2023-02-23T12:03:20;101637.0;;;16.4;69.05
59654;BME280;66556;52.008;5.432;2023-02-23T12:05:05;101636.0;;;16.45;68.77
59654;BME280;66556;52.008;5.432;2023-02-23T12:06:44;101635.0;;;16.47;68.52
59654;BME280;66556;52.008;5.432;2023-02-23T12:08:27;101634.0;;;16.47;68.41
59654;BME280;66556;52.008;5.432;2023-02-23T12:11:58;101632.0;;;16.59;67.34
59654;BME280;66556;52.008;5.432;2023-02-23T12:13:41;101635.0;;;16.61;67.36
59654;BME280;66556;52.008;5.432;2023-02-23T12:15:27;101637.0;;;16.43;68.3
59654;BME280;66556;52.008;5.432;2023-02-23T12:17:11;101639.0;;;16.4;68.16
59654;BME280;66556;52.008;5.432;2023-02-23T12:18:55;101639.0;;;16.43;68.61
59654;BME280;66556;52.008;5.432;2023-02-23T12:22:22;101642.0;;;16.3;68.64
59654;BME280;66556;52.008;5.432;2023-02-23T12:24:12;101642.0;;;16.18;68.33
59654;BME280;66556;52.008;5.432;2023-02-23T12:26:08;101642.0;;;16.31;68.64
59654;BME280;66556;52.008;5.432;2023-02-23T12:27:52;101645.0;;;16.14;68.5
59654;BME280;66556;52.008;5.432;2023-02-23T12:29:37;101646.0;;;16.11;69.61
59654;BME280;66556;52.008;5.432;2023-02-23T12:31:22;101646.0;;;16.11;68.94
59654;BME280;66556;52.008;5.432;2023-02-23T12:34:48;101645.0;;;15.95;69.78
59654;BME280;66556;52.008;5.432;2023-02-23T12:36:35;101643.0;;;15.77;70.08